North Portal, Canada
Current Conditions -  °F | °C
As of 12:00 AM on Tuesday 21 Oct 2014 (Local Time) from CYEN Reporting Station
Clear Clear  
Wind Chill: 50°   Ceiling: Unl
Heat Index: 50°   Visibility: 15mi
Dew Point: 41°   Wind: 8mph
Humidity: 71%   Direction: 130°SE
Pressure: 29.79"   Gusts: NA
Location:  49°N, 102.55°W
Report Text: CYEN 210600Z 13007KT 15SM SKC 10/05 A2979 RMK SLP095
Loading
Personal Weather Stations






























Interactive Weather Map
Tropical Storm Tracking
New forecast layout! Learn more

10-Day Weather Forecast

Advertisements
Track Severe Weather on mobile